Terminal Aerodrome Forecast
Issued by NWS

Home | Current Version | Previous Version | Text Only | Print | Product List | Glossary On
Versions: 1 2 3 4 5 6 7 8 9 10 11 12
000
FTUS44 KTSA 052300
TAFMLC
TAF
KMLC 052320Z 0600/0624 13006KT P6SM VCTS SCT050CB BKN090
      TEMPO 0600/0604 5SM -TSRA BKN040CB
     FM060400 15010KT P6SM VCTS BKN040CB
      TEMPO 0604/0608 4SM -TSRA BKN030CB
     FM061200 15010KT 4SM -SHRA OVC025
     FM061800 16012G20KT P6SM VCTS BKN035CB=

USA.gov is the U.S. government's official web portal to all federal, state and local government web resources and services.